Minerva Virgo — SXXT — position and weather

sailwx.info

Track history (hours):
 
Tides and Currents Weather Stations Pressure Air Temp Water Temp Dewpoint Dewpoint Depression Visibility Wind Speed Wind Dir Waves Ship Positions

Minerva Virgo

Last reported at 2018-Feb-17 10:48 UTC. Time now 2018-Feb-19 00:09 UTC.
Position N 27°39' W 015°17'.

Length 182 m; draft 11.8 m.

Type: Ship (hazmat cat B). MMSI: 240730000.

Date/timePositionNaut miles runAvg speedWind from/ knotsBaromVisibWave heightAir tempDewpointWater temp
2018-Feb-17 10:48N 27°39' W 015°17'414.1
2018-Feb-17 10:30N 27°42' W 015°14'713.8
2018-Feb-17 10:00N 27°47' W 015°09'714.0
2018-Feb-17 09:30N 27°54' W 015°06'713.7
2018-Feb-17 09:00N 28°00' W 015°03'713.5
2018-Feb-17 08:30N 28°07' W 015°01'713.8
2018-Feb-17 08:00N 28°13' W 014°58'714.0
2018-Feb-17 07:30N 28°20' W 014°55'713.9
2018-Feb-17 07:00N 28°26' W 014°53'813.9
2018-Feb-17 06:28N 28°34' W 014°51'613.6
2018-Feb-17 06:00N 28°40' W 014°49'813.3
2018-Feb-17 05:26N 28°47' W 014°47'613.2
2018-Feb-17 04:59N 28°53' W 014°45'613.3
2018-Feb-17 04:30N 28°59' W 014°43'713.6
2018-Feb-17 04:00N 29°06' W 014°41'713.6
2018-Feb-17 03:27N 29°13' W 014°39'613.5
2018-Feb-17 03:00N 29°19' W 014°37'713.4
2018-Feb-17 02:30N 29°25' W 014°35'713.5
2018-Feb-17 02:00N 29°32' W 014°34'913.5
2018-Feb-17 01:19N 29°41' W 014°31'413.3
2018-Feb-17 01:00N 29°45' W 014°29'  
2018-Feb-12 11:19N 49°44' W 004°25'1012.6
2018-Feb-12 10:31N 49°47' W 004°10'013.2
2018-Feb-12 10:31N 49°47' W 004°10'1413.0
2018-Feb-12 09:26N 49°50' W 003°49'613.0
2018-Feb-12 09:00N 49°51' W 003°40'812.7
2018-Feb-12 08:24N 49°54' W 003°29'512.5
2018-Feb-12 08:00N 49°55' W 003°21'612.2
2018-Feb-12 07:30N 49°56' W 003°12'611.9
2018-Feb-12 07:00N 49°58' W 003°03'611.6
2018-Feb-12 06:30N 49°59' W 002°55'611.3
2018-Feb-12 06:00N 50°01' W 002°46'511.0
2018-Feb-12 05:30N 50°02' W 002°38'2010.9
2018-Feb-12 03:38N 50°08' W 002°07'211.4
2018-Feb-12 03:30N 50°08' W 002°05'611.6
2018-Feb-12 03:00N 50°10' W 001°56'612.1
2018-Feb-12 02:30N 50°11' W 001°47'612.7
2018-Feb-12 02:00N 50°13' W 001°38'713.2
2018-Feb-12 01:30N 50°15' W 001°28'4713.7
2018-Feb-11 22:03N 50°27' W 000°16'112.7
2018-Feb-11 22:00N 50°27' W 000°15'612.6
2018-Feb-11 21:30N 50°29' W 000°06'712.3
2018-Feb-11 20:58N 50°31' E 000°04'612.0
2018-Feb-11 20:30N 50°32' E 000°13'611.7
2018-Feb-11 20:00N 50°34' E 000°21'611.5
2018-Feb-11 19:30N 50°35' E 000°30'611.7
2018-Feb-11 19:00N 50°38' E 000°38'611.9
2018-Feb-11 18:30N 50°41' E 000°46'612.0
2018-Feb-11 18:00N 50°45' E 000°54'612.2
2018-Feb-11 17:30N 50°48' E 001°02'612.8
2018-Feb-11 17:00N 50°52' E 001°11'813.8
2018-Feb-11 16:27N 50°56' E 001°20'714.2
2018-Feb-11 15:59N 51°02' E 001°26'714.5
2018-Feb-11 15:30N 51°07' E 001°34'713.8
2018-Feb-11 15:00N 51°12' E 001°42'713.3
2018-Feb-11 14:31N 51°17' E 001°48'612.6
2018-Feb-11 14:00N 51°22' E 001°53'611.9
2018-Feb-11 13:31N 51°27' E 001°58'611.6
2018-Feb-11 13:01N 51°32' E 002°04'611.3
2018-Feb-11 12:30N 51°36' E 002°10'611.1
2018-Feb-11 12:00N 51°40' E 002°16'510.9
2018-Feb-11 11:30N 51°45' E 002°22'6611.0
2018-Feb-11 05:31N 52°29' E 003°41'111.1
2018-Feb-11 05:23N 52°30' E 003°43'410.9
2018-Feb-11 04:59N 52°31' E 003°50'510.6
2018-Feb-11 04:30N 52°31' E 003°59'510.2
2018-Feb-11 04:01N 52°31' E 004°07'510.5
2018-Feb-11 03:31N 52°31' E 004°15'4 8.1
2018-Feb-11 03:00N 52°30' E 004°22'5 9.8
2018-Feb-11 02:30N 52°28' E 004°29'4 8.5
2018-Feb-11 02:01N 52°28' E 004°36'0 0.3
2018-Feb-11 01:31N 52°28' E 004°37'1 2.1
2018-Feb-11 01:00N 52°28' E 004°38'3 6.4
2018-Feb-11 00:31N 52°26' E 004°43'3 6.6
2018-Feb-11 00:01N 52°25' E 004°48'1 2.5
2018-Feb-10 23:28N 52°24' E 004°49'0 0.0
2018-Feb-10 22:58N 52°24' E 004°49'0 0.0
2018-Feb-10 22:28N 52°24' E 004°49'0 0.0
2018-Feb-10 21:58N 52°24' E 004°49'0 0.0
2018-Feb-10 21:25N 52°24' E 004°49'0 0.0
2018-Feb-10 20:46N 52°24' E 004°49'0 0.0
2018-Feb-10 20:28N 52°24' E 004°49'0 0.0
2018-Feb-10 19:58N 52°24' E 004°49'0 0.0
2018-Feb-10 19:28N 52°24' E 004°49'0 0.0
2018-Feb-10 18:58N 52°24' E 004°49'0 0.0
2018-Feb-10 18:28N 52°24' E 004°49'0 0.0
2018-Feb-10 17:55N 52°24' E 004°49'0 0.0
2018-Feb-10 17:28N 52°24' E 004°49'0 0.0
2018-Feb-10 16:58N 52°24' E 004°49'0 0.0
2018-Feb-10 16:28N 52°24' E 004°49'0 0.0
2018-Feb-10 15:58N 52°24' E 004°49'0 0.0
2018-Feb-10 15:25N 52°24' E 004°49'0 0.0
2018-Feb-10 14:58N 52°24' E 004°49'0 0.0
2018-Feb-10 14:28N 52°24' E 004°49'0 0.0
2018-Feb-10 13:58N 52°24' E 004°49'0 0.0
2018-Feb-10 13:28N 52°24' E 004°49'0 0.0
2018-Feb-10 12:58N 52°24' E 004°49'0 0.0
2018-Feb-10 12:28N 52°24' E 004°49'0 0.0
2018-Feb-10 11:58N 52°24' E 004°49'0 0.0
2018-Feb-10 11:28N 52°24' E 004°49'0 0.0
2018-Feb-10 10:55N 52°24' E 004°49'0 0.0
2018-Feb-10 10:28N 52°24' E 004°49'0 0.0
2018-Feb-10 09:58N 52°24' E 004°49'0 0.0
2018-Feb-10 09:28N 52°24' E 004°49'0 0.0
2018-Feb-10 08:55N 52°24' E 004°49'0 0.0
2018-Feb-10 08:28N 52°24' E 004°49'0 0.0
2018-Feb-10 07:58N 52°24' E 004°49'0 0.0
2018-Feb-10 07:28N 52°24' E 004°49'0 0.0
2018-Feb-10 06:58N 52°24' E 004°49'0 0.0
2018-Feb-10 06:28N 52°24' E 004°49'0 0.0
2018-Feb-10 05:58N 52°24' E 004°49'0 0.0
2018-Feb-10 05:28N 52°24' E 004°49'0 0.0
2018-Feb-10 04:58N 52°24' E 004°49'0 0.0
2018-Feb-10 04:28N 52°24' E 004°49'0 0.0
2018-Feb-10 03:58N 52°24' E 004°49'0 0.0
2018-Feb-10 03:25N 52°24' E 004°49'0 0.0
2018-Feb-10 02:58N 52°24' E 004°49'0 0.0
2018-Feb-10 02:28N 52°24' E 004°49'0 0.0
2018-Feb-10 01:58N 52°24' E 004°49'0 0.0
2018-Feb-10 01:28N 52°24' E 004°49'0 0.0
2018-Feb-10 00:58N 52°24' E 004°49'0 0.0
2018-Feb-10 00:28N 52°24' E 004°49'0 0.0
2018-Feb-09 23:55N 52°24' E 004°49'0 0.0
2018-Feb-09 23:28N 52°24' E 004°49'0 0.0
2018-Feb-09 22:58N 52°24' E 004°49'0 0.0
2018-Feb-09 22:43N 52°24' E 004°49'0 0.0
2018-Feb-08 01:25N 52°24' E 004°49'0 0.0
2018-Feb-08 00:58N 52°24' E 004°49'0 0.0
2018-Feb-08 00:25N 52°24' E 004°49'0 0.0
2018-Feb-07 23:58N 52°24' E 004°49'0 0.0
2018-Feb-07 23:28N 52°24' E 004°49'0 0.0
2018-Feb-07 22:58N 52°24' E 004°49'0 0.0
2018-Feb-07 22:28N 52°24' E 004°49'0 0.0
2018-Feb-07 21:52N 52°24' E 004°49'0 0.0
2018-Feb-07 21:28N 52°24' E 004°49'  
Track history (hours):
 
Tides and Currents Weather Stations Pressure Air Temp Water Temp Dewpoint Dewpoint Depression Visibility Wind Speed Wind Dir Waves Ship Positions

Minerva Virgo

Last reported at 2018-Feb-17 10:48 UTC. Time now 2018-Feb-19 00:09 UTC.
Position N 27°39' W 015°17'.

Length 182 m; draft 11.8 m.

Type: Ship (hazmat cat B). MMSI: 240730000.

Date/timePositionNaut miles runAvg speedWind from/ knotsBaromVisibWave heightAir tempDewpointWater temp
2018-Feb-17 10:48N 27°39' W 015°17'414.1
2018-Feb-17 10:30N 27°42' W 015°14'713.8
2018-Feb-17 10:00N 27°47' W 015°09'714.0
2018-Feb-17 09:30N 27°54' W 015°06'713.7
2018-Feb-17 09:00N 28°00' W 015°03'713.5
2018-Feb-17 08:30N 28°07' W 015°01'713.8
2018-Feb-17 08:00N 28°13' W 014°58'714.0
2018-Feb-17 07:30N 28°20' W 014°55'713.9
2018-Feb-17 07:00N 28°26' W 014°53'813.9
2018-Feb-17 06:28N 28°34' W 014°51'613.6
2018-Feb-17 06:00N 28°40' W 014°49'813.3
2018-Feb-17 05:26N 28°47' W 014°47'613.2
2018-Feb-17 04:59N 28°53' W 014°45'613.3
2018-Feb-17 04:30N 28°59' W 014°43'713.6
2018-Feb-17 04:00N 29°06' W 014°41'713.6
2018-Feb-17 03:27N 29°13' W 014°39'613.5
2018-Feb-17 03:00N 29°19' W 014°37'713.4
2018-Feb-17 02:30N 29°25' W 014°35'713.5
2018-Feb-17 02:00N 29°32' W 014°34'913.5
2018-Feb-17 01:19N 29°41' W 014°31'413.3
2018-Feb-17 01:00N 29°45' W 014°29'  
2018-Feb-12 11:19N 49°44' W 004°25'1012.6
2018-Feb-12 10:31N 49°47' W 004°10'013.2
2018-Feb-12 10:31N 49°47' W 004°10'1413.0
2018-Feb-12 09:26N 49°50' W 003°49'613.0
2018-Feb-12 09:00N 49°51' W 003°40'812.7
2018-Feb-12 08:24N 49°54' W 003°29'512.5
2018-Feb-12 08:00N 49°55' W 003°21'612.2
2018-Feb-12 07:30N 49°56' W 003°12'611.9
2018-Feb-12 07:00N 49°58' W 003°03'611.6
2018-Feb-12 06:30N 49°59' W 002°55'611.3
2018-Feb-12 06:00N 50°01' W 002°46'511.0
2018-Feb-12 05:30N 50°02' W 002°38'2010.9
2018-Feb-12 03:38N 50°08' W 002°07'211.4
2018-Feb-12 03:30N 50°08' W 002°05'611.6
2018-Feb-12 03:00N 50°10' W 001°56'612.1
2018-Feb-12 02:30N 50°11' W 001°47'612.7
2018-Feb-12 02:00N 50°13' W 001°38'713.2
2018-Feb-12 01:30N 50°15' W 001°28'4713.7
2018-Feb-11 22:03N 50°27' W 000°16'112.7
2018-Feb-11 22:00N 50°27' W 000°15'612.6
2018-Feb-11 21:30N 50°29' W 000°06'712.3
2018-Feb-11 20:58N 50°31' E 000°04'612.0
2018-Feb-11 20:30N 50°32' E 000°13'611.7
2018-Feb-11 20:00N 50°34' E 000°21'611.5
2018-Feb-11 19:30N 50°35' E 000°30'611.7
2018-Feb-11 19:00N 50°38' E 000°38'611.9
2018-Feb-11 18:30N 50°41' E 000°46'612.0
2018-Feb-11 18:00N 50°45' E 000°54'612.2
2018-Feb-11 17:30N 50°48' E 001°02'612.8
2018-Feb-11 17:00N 50°52' E 001°11'813.8
2018-Feb-11 16:27N 50°56' E 001°20'714.2
2018-Feb-11 15:59N 51°02' E 001°26'714.5
2018-Feb-11 15:30N 51°07' E 001°34'713.8
2018-Feb-11 15:00N 51°12' E 001°42'713.3
2018-Feb-11 14:31N 51°17' E 001°48'612.6
2018-Feb-11 14:00N 51°22' E 001°53'611.9
2018-Feb-11 13:31N 51°27' E 001°58'611.6
2018-Feb-11 13:01N 51°32' E 002°04'611.3
2018-Feb-11 12:30N 51°36' E 002°10'611.1
2018-Feb-11 12:00N 51°40' E 002°16'510.9
2018-Feb-11 11:30N 51°45' E 002°22'6611.0
2018-Feb-11 05:31N 52°29' E 003°41'111.1
2018-Feb-11 05:23N 52°30' E 003°43'410.9
2018-Feb-11 04:59N 52°31' E 003°50'510.6
2018-Feb-11 04:30N 52°31' E 003°59'510.2
2018-Feb-11 04:01N 52°31' E 004°07'510.5
2018-Feb-11 03:31N 52°31' E 004°15'4 8.1
2018-Feb-11 03:00N 52°30' E 004°22'5 9.8
2018-Feb-11 02:30N 52°28' E 004°29'4 8.5
2018-Feb-11 02:01N 52°28' E 004°36'0 0.3
2018-Feb-11 01:31N 52°28' E 004°37'1 2.1
2018-Feb-11 01:00N 52°28' E 004°38'3 6.4
2018-Feb-11 00:31N 52°26' E 004°43'3 6.6
2018-Feb-11 00:01N 52°25' E 004°48'1 2.5
2018-Feb-10 23:28N 52°24' E 004°49'0 0.0
2018-Feb-10 22:58N 52°24' E 004°49'0 0.0
2018-Feb-10 22:28N 52°24' E 004°49'0 0.0
2018-Feb-10 21:58N 52°24' E 004°49'0 0.0
2018-Feb-10 21:25N 52°24' E 004°49'0 0.0
2018-Feb-10 20:46N 52°24' E 004°49'0 0.0
2018-Feb-10 20:28N 52°24' E 004°49'0 0.0
2018-Feb-10 19:58N 52°24' E 004°49'0 0.0
2018-Feb-10 19:28N 52°24' E 004°49'0 0.0
2018-Feb-10 18:58N 52°24' E 004°49'0 0.0
2018-Feb-10 18:28N 52°24' E 004°49'0 0.0
2018-Feb-10 17:55N 52°24' E 004°49'0 0.0
2018-Feb-10 17:28N 52°24' E 004°49'0 0.0
2018-Feb-10 16:58N 52°24' E 004°49'0 0.0
2018-Feb-10 16:28N 52°24' E 004°49'0 0.0
2018-Feb-10 15:58N 52°24' E 004°49'0 0.0
2018-Feb-10 15:25N 52°24' E 004°49'0 0.0
2018-Feb-10 14:58N 52°24' E 004°49'0 0.0
2018-Feb-10 14:28N 52°24' E 004°49'0 0.0
2018-Feb-10 13:58N 52°24' E 004°49'0 0.0
2018-Feb-10 13:28N 52°24' E 004°49'0 0.0
2018-Feb-10 12:58N 52°24' E 004°49'0 0.0
2018-Feb-10 12:28N 52°24' E 004°49'0 0.0
2018-Feb-10 11:58N 52°24' E 004°49'0 0.0
2018-Feb-10 11:28N 52°24' E 004°49'0 0.0
2018-Feb-10 10:55N 52°24' E 004°49'0 0.0
2018-Feb-10 10:28N 52°24' E 004°49'0 0.0
2018-Feb-10 09:58N 52°24' E 004°49'0 0.0
2018-Feb-10 09:28N 52°24' E 004°49'0 0.0
2018-Feb-10 08:55N 52°24' E 004°49'0 0.0
2018-Feb-10 08:28N 52°24' E 004°49'0 0.0
2018-Feb-10 07:58N 52°24' E 004°49'0 0.0
2018-Feb-10 07:28N 52°24' E 004°49'0 0.0
2018-Feb-10 06:58N 52°24' E 004°49'0 0.0
2018-Feb-10 06:28N 52°24' E 004°49'0 0.0
2018-Feb-10 05:58N 52°24' E 004°49'0 0.0
2018-Feb-10 05:28N 52°24' E 004°49'0 0.0
2018-Feb-10 04:58N 52°24' E 004°49'0 0.0
2018-Feb-10 04:28N 52°24' E 004°49'0 0.0
2018-Feb-10 03:58N 52°24' E 004°49'0 0.0
2018-Feb-10 03:25N 52°24' E 004°49'0 0.0
2018-Feb-10 02:58N 52°24' E 004°49'0 0.0
2018-Feb-10 02:28N 52°24' E 004°49'0 0.0
2018-Feb-10 01:58N 52°24' E 004°49'0 0.0
2018-Feb-10 01:28N 52°24' E 004°49'0 0.0
2018-Feb-10 00:58N 52°24' E 004°49'0 0.0
2018-Feb-10 00:28N 52°24' E 004°49'0 0.0
2018-Feb-09 23:55N 52°24' E 004°49'0 0.0
2018-Feb-09 23:28N 52°24' E 004°49'0 0.0
2018-Feb-09 22:58N 52°24' E 004°49'0 0.0
2018-Feb-09 22:43N 52°24' E 004°49'0 0.0
2018-Feb-08 01:25N 52°24' E 004°49'0 0.0
2018-Feb-08 00:58N 52°24' E 004°49'0 0.0
2018-Feb-08 00:25N 52°24' E 004°49'0 0.0
2018-Feb-07 23:58N 52°24' E 004°49'0 0.0
2018-Feb-07 23:28N 52°24' E 004°49'0 0.0
2018-Feb-07 22:58N 52°24' E 004°49'0 0.0
2018-Feb-07 22:28N 52°24' E 004°49'0 0.0
2018-Feb-07 21:52N 52°24' E 004°49'0 0.0
2018-Feb-07 21:28N 52°24' E 004°49'  

Dump ship's entire track history